Time;durP1;ratioP1;P1;durP2;ratioP2;P2;SDS_P1;SDS_P2;PMS_P1;PMS_P2;Temp;Humidity;BMP_temperature;BMP_pressure;BME280_temperature;BME280_humidity;BME280_pressure;Samples;Min_cycle;Max_cycle;Signal;HPM_P1;HPM_P2
2021/10/07 00:01:14;;;;;;;9.30;4.95;;;;;;;;;;10323141;28;20083;-64
2021/10/07 00:06:22;;;;;;;16.08;6.18;;;;;;;;;;10322881;28;20533;-63
2021/10/07 00:11:21;;;;;;;10.35;5.80;;;;;;;;;;10322825;28;20051;-64
2021/10/07 00:16:21;;;;;;;14.02;5.90;;;;;;;;;;10322868;28;20083;-64
2021/10/07 00:21:19;;;;;;;14.25;4.90;;;;;;;;;;10322695;28;20415;-64
2021/10/07 00:26:17;;;;;;;12.50;5.60;;;;;;;;;;10322513;28;20413;-65
2021/10/07 00:31:20;;;;;;;11.35;5.93;;;;;;;;;;10321259;28;20048;-63
2021/10/07 00:36:34;;;;;;;8.07;5.65;;;;;;;;;;10321859;28;20041;-63
2021/10/07 00:41:34;;;;;;;11.55;6.32;;;;;;;;;;10321514;28;20083;-64
2021/10/07 00:46:32;;;;;;;15.88;5.90;;;;;;;;;;10320792;28;20032;-63
2021/10/07 00:51:32;;;;;;;14.35;5.45;;;;;;;;;;10321285;28;20068;-63
2021/10/07 00:56:30;;;;;;;18.20;6.40;;;;;;;;;;10320893;28;20044;-63
2021/10/07 01:01:29;;;;;;;14.50;5.43;;;;;;;;;;10320190;28;20494;-63
2021/10/07 01:06:27;;;;;;;11.25;5.68;;;;;;;;;;10320591;28;20510;-62
2021/10/07 01:11:27;;;;;;;12.07;6.15;;;;;;;;;;10319485;28;20045;-62
2021/10/07 01:16:26;;;;;;;13.05;6.05;;;;;;;;;;10320376;28;20076;-63
2021/10/07 01:21:26;;;;;;;12.77;5.80;;;;;;;;;;10320203;28;20086;-63
2021/10/07 01:26:26;;;;;;;8.40;5.18;;;;;;;;;;10319917;28;20508;-62
2021/10/07 01:31:25;;;;;;;6.00;5.40;;;;;;;;;;10319035;28;20079;-63
2021/10/07 01:36:23;;;;;;;13.40;6.22;;;;;;;;;;10319665;28;20049;-63
2021/10/07 01:41:23;;;;;;;10.35;6.40;;;;;;;;;;10318936;28;20079;-63
2021/10/07 01:46:21;;;;;;;22.98;6.95;;;;;;;;;;10319054;28;20047;-65
2021/10/07 01:51:20;;;;;;;17.20;6.00;;;;;;;;;;10318495;28;20048;-62
2021/10/07 01:56:18;;;;;;;19.75;6.88;;;;;;;;;;10317994;28;20430;-62
2021/10/07 02:01:18;;;;;;;27.77;9.25;;;;;;;;;;10318310;28;20187;-64
2021/10/07 02:06:17;;;;;;;17.70;9.23;;;;;;;;;;10318255;28;20072;-64
2021/10/07 02:11:15;;;;;;;26.73;8.75;;;;;;;;;;10318017;28;20041;-64
2021/10/07 02:16:13;;;;;;;27.85;9.60;;;;;;;;;;10318282;28;20518;-64
2021/10/07 02:21:13;;;;;;;27.58;9.30;;;;;;;;;;10317199;28;20082;-64
2021/10/07 02:26:11;;;;;;;27.95;10.10;;;;;;;;;;10317329;28;20068;-64
2021/10/07 02:31:10;;;;;;;20.38;8.45;;;;;;;;;;10316780;28;20488;-64
2021/10/07 02:36:08;;;;;;;24.23;8.85;;;;;;;;;;10317482;28;20413;-64
2021/10/07 02:41:08;;;;;;;17.80;9.57;;;;;;;;;;10317224;28;20513;-64
2021/10/07 02:46:06;;;;;;;20.92;8.85;;;;;;;;;;10316897;28;20052;-64
2021/10/07 02:51:05;;;;;;;24.48;9.43;;;;;;;;;;10316838;28;20083;-64
2021/10/07 02:56:04;;;;;;;23.52;7.82;;;;;;;;;;10316943;28;20052;-64
2021/10/07 03:01:04;;;;;;;18.67;8.13;;;;;;;;;;10316833;28;20083;-64
2021/10/07 03:06:02;;;;;;;21.27;7.93;;;;;;;;;;10315792;28;20051;-64
2021/10/07 03:11:01;;;;;;;22.25;7.72;;;;;;;;;;10316462;28;20075;-64
2021/10/07 03:15:59;;;;;;;20.65;8.02;;;;;;;;;;10316210;28;20041;-63
2021/10/07 03:20:59;;;;;;;24.55;7.18;;;;;;;;;;10315890;28;20082;-64
2021/10/07 03:25:58;;;;;;;31.52;8.85;;;;;;;;;;10316044;28;20055;-64
2021/10/07 03:30:56;;;;;;;21.88;8.23;;;;;;;;;;10315595;28;20047;-63
2021/10/07 03:35:54;;;;;;;22.30;8.48;;;;;;;;;;10324290;28;20428;-63
2021/10/07 03:40:54;;;;;;;26.67;13.00;;;;;;;;;;10322656;28;20052;-63
2021/10/07 03:45:52;;;;;;;32.65;7.78;;;;;;;;;;10322361;28;20581;-63
2021/10/07 03:50:51;;;;;;;26.25;8.07;;;;;;;;;;10322173;28;20406;-63
2021/10/07 03:55:49;;;;;;;18.83;7.38;;;;;;;;;;10321760;28;20048;-63
2021/10/07 04:00:49;;;;;;;26.20;8.55;;;;;;;;;;10321172;28;20064;-63
2021/10/07 04:05:48;;;;;;;20.17;8.98;;;;;;;;;;10321349;28;20045;-63
2021/10/07 04:10:50;;;;;;;19.40;7.82;;;;;;;;;;10321140;28;20048;-63
2021/10/07 04:15:49;;;;;;;27.73;9.02;;;;;;;;;;10321577;28;20040;-63
2021/10/07 04:20:49;;;;;;;29.23;8.45;;;;;;;;;;10321203;28;20072;-62
2021/10/07 04:25:47;;;;;;;34.25;7.95;;;;;;;;;;10321244;28;20079;-63
2021/10/07 04:30:46;;;;;;;36.08;8.93;;;;;;;;;;10320624;28;20084;-63
2021/10/07 04:35:45;;;;;;;23.75;8.27;;;;;;;;;;10320906;28;20543;-63
2021/10/07 04:40:44;;;;;;;25.63;8.82;;;;;;;;;;10320548;28;20084;-62
2021/10/07 04:45:43;;;;;;;28.83;9.20;;;;;;;;;;10320182;28;20051;-63
2021/10/07 04:50:41;;;;;;;22.90;6.88;;;;;;;;;;10320323;28;20417;-63
2021/10/07 04:55:41;;;;;;;31.23;8.10;;;;;;;;;;10319378;28;20056;-62
2021/10/07 05:00:39;;;;;;;24.02;7.78;;;;;;;;;;10312458;28;20041;-62
2021/10/07 05:05:37;;;;;;;17.83;9.00;;;;;;;;;;10296844;28;20068;-63
2021/10/07 05:10:36;;;;;;;27.42;8.02;;;;;;;;;;10279012;28;20073;-62
2021/10/07 05:15:35;;;;;;;27.30;10.52;;;;;;;;;;10277064;28;20468;-63
2021/10/07 05:20:34;;;;;;;30.00;9.77;;;;;;;;;;10279046;28;20075;-63
2021/10/07 05:25:33;;;;;;;32.90;9.30;;;;;;;;;;10278347;28;20045;-65
2021/10/07 05:30:31;;;;;;;32.50;9.35;;;;;;;;;;10278902;28;20048;-63
2021/10/07 05:35:31;;;;;;;30.77;12.10;;;;;;;;;;10277926;28;20520;-64
2021/10/07 05:40:29;;;;;;;19.17;7.90;;;;;;;;;;10277978;28;20068;-65
2021/10/07 05:45:28;;;;;;;27.60;12.05;;;;;;;;;;10278426;28;20060;-63
2021/10/07 05:50:26;;;;;;;26.65;8.85;;;;;;;;;;10277846;28;20045;-63
2021/10/07 05:55:26;;;;;;;25.15;8.00;;;;;;;;;;10277171;28;20143;-64
2021/10/07 06:00:24;;;;;;;20.92;8.32;;;;;;;;;;10277456;28;20509;-63
2021/10/07 06:05:23;;;;;;;23.55;8.18;;;;;;;;;;10277822;28;20053;-62
2021/10/07 06:10:21;;;;;;;30.35;11.20;;;;;;;;;;10277755;28;20053;-63
2021/10/07 06:15:23;;;;;;;16.63;7.95;;;;;;;;;;10277170;28;20080;-63
2021/10/07 06:20:29;;;;;;;21.33;9.23;;;;;;;;;;10276832;28;20488;-62
2021/10/07 06:25:28;;;;;;;35.47;19.13;;;;;;;;;;10275567;28;20072;-64
2021/10/07 06:30:28;;;;;;;26.00;9.10;;;;;;;;;;10274322;28;20078;-65
2021/10/07 06:35:27;;;;;;;31.17;8.55;;;;;;;;;;10268540;28;20079;-65
2021/10/07 06:40:26;;;;;;;25.02;9.93;;;;;;;;;;10267730;28;20073;-65
2021/10/07 06:45:26;;;;;;;29.98;16.13;;;;;;;;;;10268628;28;20077;-65
2021/10/07 06:50:25;;;;;;;27.27;9.13;;;;;;;;;;10271601;28;20469;-65
2021/10/07 06:55:24;;;;;;;29.45;9.25;;;;;;;;;;10275924;28;20048;-65
2021/10/07 07:00:22;;;;;;;36.92;10.48;;;;;;;;;;10275843;28;20080;-65
2021/10/07 07:05:21;;;;;;;34.55;10.88;;;;;;;;;;10275521;28;20049;-65
2021/10/07 07:10:21;;;;;;;19.67;7.78;;;;;;;;;;10275827;28;20406;-65
2021/10/07 07:15:20;;;;;;;24.98;8.48;;;;;;;;;;10275619;28;20041;-65
2021/10/07 07:20:19;;;;;;;25.98;7.40;;;;;;;;;;10275256;28;20462;-65
2021/10/07 07:25:17;;;;;;;30.35;8.52;;;;;;;;;;10275139;28;20084;-65
2021/10/07 07:30:17;;;;;;;24.85;7.60;;;;;;;;;;10275222;28;20049;-65
2021/10/07 07:35:16;;;;;;;21.23;7.43;;;;;;;;;;10275704;28;20076;-65
2021/10/07 07:40:14;;;;;;;25.92;8.98;;;;;;;;;;10275446;28;20076;-65
2021/10/07 07:45:18;;;;;;;20.45;6.15;;;;;;;;;;10275274;28;20076;-65
2021/10/07 07:50:32;;;;;;;29.90;7.50;;;;;;;;;;10274810;28;20049;-65
2021/10/07 07:55:30;;;;;;;22.70;8.07;;;;;;;;;;10274631;28;20069;-65
2021/10/07 08:00:30;;;;;;;20.38;7.22;;;;;;;;;;10275014;28;20072;-65
2021/10/07 08:05:29;;;;;;;27.52;7.60;;;;;;;;;;10274761;28;20052;-65
2021/10/07 08:10:27;;;;;;;30.35;8.65;;;;;;;;;;10274730;28;20084;-65
2021/10/07 08:15:26;;;;;;;28.05;8.75;;;;;;;;;;10274455;28;20052;-65
2021/10/07 08:20:26;;;;;;;26.15;6.85;;;;;;;;;;10280016;28;20084;-65
2021/10/07 08:25:24;;;;;;;56.92;38.55;;;;;;;;;;10281515;28;20080;-65
2021/10/07 08:30:22;;;;;;;15.85;6.22;;;;;;;;;;10281955;28;20083;-65
2021/10/07 08:35:21;;;;;;;20.40;5.50;;;;;;;;;;10281762;28;20079;-65
2021/10/07 08:40:21;;;;;;;19.20;6.53;;;;;;;;;;10281507;28;20525;-65
2021/10/07 08:45:22;;;;;;;24.15;7.50;;;;;;;;;;10281177;28;20508;-65
2021/10/07 08:50:20;;;;;;;21.70;9.43;;;;;;;;;;10280556;28;20076;-65
2021/10/07 08:55:19;;;;;;;17.15;7.22;;;;;;;;;;10280399;28;20080;-65
2021/10/07 09:00:18;;;;;;;26.38;8.80;;;;;;;;;;10280054;28;20073;-65
2021/10/07 09:05:19;;;;;;;18.60;7.55;;;;;;;;;;10280150;28;20065;-65
2021/10/07 09:10:17;;;;;;;23.85;7.65;;;;;;;;;;10280223;28;20048;-65
2021/10/07 09:15:16;;;;;;;21.48;8.73;;;;;;;;;;10278740;28;20068;-65
2021/10/07 09:20:30;;;;;;;22.98;7.53;;;;;;;;;;10279578;28;20041;-65
2021/10/07 09:25:30;;;;;;;25.02;7.95;;;;;;;;;;10279948;28;20044;-65
2021/10/07 09:30:29;;;;;;;20.63;7.13;;;;;;;;;;10278193;28;20414;-65
2021/10/07 09:35:36;;;;;;;18.45;7.35;;;;;;;;;;10279001;28;20057;-65
2021/10/07 09:40:35;;;;;;;24.88;9.60;;;;;;;;;;10278991;28;20098;-65
2021/10/07 09:45:34;;;;;;;20.83;7.78;;;;;;;;;;10278841;28;20056;-65
2021/10/07 09:50:35;;;;;;;22.13;7.13;;;;;;;;;;10278147;28;20041;-65
2021/10/07 09:55:34;;;;;;;22.33;6.97;;;;;;;;;;10278245;28;20095;-65
2021/10/07 10:00:35;;;;;;;28.67;6.78;;;;;;;;;;10277881;28;20079;-65
2021/10/07 10:05:36;;;;;;;22.73;7.65;;;;;;;;;;10277506;28;20056;-65
2021/10/07 10:10:35;;;;;;;20.25;7.85;;;;;;;;;;10277822;28;20056;-65
2021/10/07 10:15:34;;;;;;;20.17;7.13;;;;;;;;;;10277503;28;20045;-65
2021/10/07 10:20:36;;;;;;;16.15;6.50;;;;;;;;;;10276937;28;20053;-65
2021/10/07 10:25:51;;;;;;;29.08;8.18;;;;;;;;;;10277118;28;20052;-65
2021/10/07 10:30:49;;;;;;;26.75;7.47;;;;;;;;;;10276741;28;20049;-65
2021/10/07 10:35:48;;;;;;;28.77;10.18;;;;;;;;;;10276666;28;20041;-65
2021/10/07 10:40:48;;;;;;;34.45;9.80;;;;;;;;;;10276361;28;20391;-65
2021/10/07 10:45:46;;;;;;;23.25;8.90;;;;;;;;;;10276504;28;20106;-65
2021/10/07 10:51:00;;;;;;;35.75;8.98;;;;;;;;;;10275988;28;20056;-65
2021/10/07 10:56:00;;;;;;;21.67;9.23;;;;;;;;;;10276237;28;20068;-65
2021/10/07 11:01:13;;;;;;;23.25;9.07;;;;;;;;;;10275504;28;20465;-65
2021/10/07 11:06:11;;;;;;;31.83;8.80;;;;;;;;;;10275907;28;20061;-65
2021/10/07 11:11:22;;;;;;;51.05;30.15;;;;;;;;;;10275717;28;20084;-65
2021/10/07 11:16:21;;;;;;;24.13;10.43;;;;;;;;;;10275831;28;20418;-65
2021/10/07 11:21:22;;;;;;;24.33;10.02;;;;;;;;;;10275982;28;20099;-65
2021/10/07 11:26:23;;;;;;;41.28;11.73;;;;;;;;;;10275575;28;20044;-65
2021/10/07 11:31:22;;;;;;;20.88;8.45;;;;;;;;;;10274811;28;20068;-66
2021/10/07 11:36:21;;;;;;;20.73;7.15;;;;;;;;;;10275735;28;20055;-65
2021/10/07 11:41:22;;;;;;;25.17;7.55;;;;;;;;;;10274654;28;20087;-65
2021/10/07 11:46:22;;;;;;;37.33;9.82;;;;;;;;;;10275352;28;20045;-65
2021/10/07 11:51:21;;;;;;;28.90;11.18;;;;;;;;;;10275278;28;20409;-65
2021/10/07 11:56:22;;;;;;;30.08;9.65;;;;;;;;;;10282545;28;20076;-65
2021/10/07 12:01:24;;;;;;;28.27;9.35;;;;;;;;;;10282683;28;20053;-65
2021/10/07 12:06:22;;;;;;;20.88;9.82;;;;;;;;;;10282475;28;20076;-65
2021/10/07 12:11:22;;;;;;;20.25;9.30;;;;;;;;;;10282442;28;20445;-65
2021/10/07 12:16:22;;;;;;;18.63;8.82;;;;;;;;;;10282164;28;20037;-65
2021/10/07 12:21:22;;;;;;;16.13;7.05;;;;;;;;;;10282015;28;20052;-65
2021/10/07 12:26:24;;;;;;;14.30;6.22;;;;;;;;;;10281890;28;20048;-65
2021/10/07 12:31:25;;;;;;;19.80;9.02;;;;;;;;;;10281213;28;20064;-65
2021/10/07 12:36:31;;;;;;;21.65;6.68;;;;;;;;;;10281599;28;20048;-65
2021/10/07 12:41:34;;;;;;;16.92;8.10;;;;;;;;;;10281456;28;20073;-65
2021/10/07 12:46:44;;;;;;;17.02;6.80;;;;;;;;;;10281203;28;20493;-65
2021/10/07 12:51:47;;;;;;;15.88;4.95;;;;;;;;;;10280980;28;20053;-65
2021/10/07 12:56:47;;;;;;;9.80;4.35;;;;;;;;;;10280739;28;20048;-65
2021/10/07 13:01:47;;;;;;;28.67;5.10;;;;;;;;;;10280476;28;20045;-65
2021/10/07 13:06:46;;;;;;;20.52;5.85;;;;;;;;;;10280474;28;20103;-65
2021/10/07 13:11:45;;;;;;;26.30;5.40;;;;;;;;;;10280316;28;20065;-65
2021/10/07 13:16:43;;;;;;;21.25;5.47;;;;;;;;;;10279898;28;20037;-65
2021/10/07 13:21:43;;;;;;;30.95;6.35;;;;;;;;;;10279754;28;20045;-65
2021/10/07 13:26:48;;;;;;;27.35;6.05;;;;;;;;;;10278732;28;20076;-65
2021/10/07 13:31:46;;;;;;;19.55;5.80;;;;;;;;;;10279457;28;20390;-65
2021/10/07 13:36:46;;;;;;;21.83;5.03;;;;;;;;;;10279231;28;20048;-65
2021/10/07 13:41:45;;;;;;;20.13;5.80;;;;;;;;;;10278387;28;20040;-65
2021/10/07 13:46:43;;;;;;;19.35;5.32;;;;;;;;;;10278625;28;20052;-65
2021/10/07 13:51:41;;;;;;;26.02;5.72;;;;;;;;;;10278534;28;20076;-65
2021/10/07 13:56:43;;;;;;;20.00;5.55;;;;;;;;;;10277710;28;20640;-65
2021/10/07 14:01:41;;;;;;;20.20;6.95;;;;;;;;;;10278532;28;20048;-65
2021/10/07 14:06:41;;;;;;;12.80;4.95;;;;;;;;;;10277946;28;20132;-65
2021/10/07 14:11:39;;;;;;;22.77;5.38;;;;;;;;;;10277627;28;20048;-64
2021/10/07 14:16:39;;;;;;;15.65;4.68;;;;;;;;;;10275587;28;20049;-64
2021/10/07 14:21:38;;;;;;;23.65;10.70;;;;;;;;;;10283656;28;20071;-65
2021/10/07 14:26:39;;;;;;;19.77;6.22;;;;;;;;;;10273130;28;20072;-65
2021/10/07 14:31:40;;;;;;;20.27;5.95;;;;;;;;;;10274333;28;20088;-65
2021/10/07 14:36:38;;;;;;;19.75;7.72;;;;;;;;;;10277046;28;20037;-65
2021/10/07 14:41:37;;;;;;;32.25;13.05;;;;;;;;;;10276615;28;20045;-65
2021/10/07 14:46:35;;;;;;;19.10;5.65;;;;;;;;;;10276589;28;20103;-65
2021/10/07 14:51:35;;;;;;;13.32;6.55;;;;;;;;;;10276565;28;20060;-65
2021/10/07 14:56:33;;;;;;;12.55;6.30;;;;;;;;;;10276120;28;20052;-65
2021/10/07 15:01:32;;;;;;;30.85;7.63;;;;;;;;;;10275713;28;20049;-65
2021/10/07 15:06:51;;;;;;;12.07;5.90;;;;;;;;;;10275847;28;20489;-65
2021/10/07 15:11:50;;;;;;;26.30;7.13;;;;;;;;;;10275677;28;20072;-65
2021/10/07 15:16:49;;;;;;;26.95;6.18;;;;;;;;;;10275953;28;20082;-65
2021/10/07 15:21:47;;;;;;;14.60;5.55;;;;;;;;;;10275779;28;20072;-66
2021/10/07 15:26:47;;;;;;;26.35;8.65;;;;;;;;;;10275702;28;20560;-66
2021/10/07 15:31:48;;;;;;;15.88;8.07;;;;;;;;;;10284040;28;20057;-65
2021/10/07 15:36:47;;;;;;;18.33;6.47;;;;;;;;;;10284102;28;20056;-66
2021/10/07 15:41:47;;;;;;;18.67;9.45;;;;;;;;;;10296491;28;20074;-65
2021/10/07 15:46:49;;;;;;;15.90;7.57;;;;;;;;;;10323534;28;20079;-65
2021/10/07 15:51:49;;;;;;;17.80;6.20;;;;;;;;;;10323207;28;20048;-65
2021/10/07 15:56:51;;;;;;;13.68;6.72;;;;;;;;;;10323277;28;20048;-65
2021/10/07 16:01:49;;;;;;;14.98;6.07;;;;;;;;;;10323523;28;20084;-65
2021/10/07 16:06:47;;;;;;;16.88;6.53;;;;;;;;;;10323088;28;20068;-65
2021/10/07 16:11:50;;;;;;;25.85;12.95;;;;;;;;;;10323029;28;20524;-65
2021/10/07 16:16:49;;;;;;;17.98;8.15;;;;;;;;;;10323092;28;20044;-65
2021/10/07 16:21:50;;;;;;;18.75;9.32;;;;;;;;;;10320652;28;20052;-65
2021/10/07 16:26:49;;;;;;;14.48;7.40;;;;;;;;;;10310895;28;20068;-63
2021/10/07 16:31:47;;;;;;;16.05;8.32;;;;;;;;;;10308335;28;20549;-65
2021/10/07 16:36:47;;;;;;;18.60;7.22;;;;;;;;;;10318389;28;20072;-65
2021/10/07 16:41:46;;;;;;;19.10;11.25;;;;;;;;;;10296813;28;20032;-65
2021/10/07 16:46:44;;;;;;;19.50;7.60;;;;;;;;;;10280805;28;20471;-65
2021/10/07 16:51:44;;;;;;;22.00;9.88;;;;;;;;;;10280949;28;20052;-65
2021/10/07 16:56:44;;;;;;;17.23;9.38;;;;;;;;;;10280319;28;20053;-65
2021/10/07 17:01:42;;;;;;;18.33;5.90;;;;;;;;;;10279862;28;20079;-64
2021/10/07 17:06:42;;;;;;;13.85;6.60;;;;;;;;;;10280036;28;20083;-65
2021/10/07 17:11:40;;;;;;;12.35;6.22;;;;;;;;;;10279562;28;20045;-64
2021/10/07 17:16:40;;;;;;;20.73;9.73;;;;;;;;;;10281916;28;20048;-65
2021/10/07 17:21:38;;;;;;;15.85;9.48;;;;;;;;;;10279061;28;20409;-64
2021/10/07 17:26:37;;;;;;;23.48;8.90;;;;;;;;;;10279941;28;20084;-64
2021/10/07 17:31:35;;;;;;;28.50;14.23;;;;;;;;;;10279098;28;20498;-65
2021/10/07 17:36:35;;;;;;;19.65;6.47;;;;;;;;;;10278443;28;20057;-66
2021/10/07 17:41:33;;;;;;;9.23;5.82;;;;;;;;;;10278019;28;20049;-66
2021/10/07 17:46:31;;;;;;;16.15;7.28;;;;;;;;;;10277503;28;20076;-66
2021/10/07 17:51:30;;;;;;;10.38;6.00;;;;;;;;;;10276641;28;20044;-66
2021/10/07 17:56:29;;;;;;;11.05;4.45;;;;;;;;;;10277848;28;20068;-65
2021/10/07 18:01:28;;;;;;;17.13;8.13;;;;;;;;;;10277201;28;20037;-65
2021/10/07 18:06:28;;;;;;;16.40;7.13;;;;;;;;;;10276555;28;20079;-64
2021/10/07 18:11:26;;;;;;;18.45;6.75;;;;;;;;;;10276313;28;20040;-65
2021/10/07 18:16:30;;;;;;;11.07;6.57;;;;;;;;;;10275770;28;20100;-65
2021/10/07 18:21:28;;;;;;;13.70;5.45;;;;;;;;;;10275831;28;20092;-64
2021/10/07 18:26:28;;;;;;;21.90;8.40;;;;;;;;;;10274868;28;20490;-65
2021/10/07 18:31:28;;;;;;;11.93;5.07;;;;;;;;;;10273700;28;20077;-64
2021/10/07 18:36:26;;;;;;;14.02;5.25;;;;;;;;;;10273196;28;20056;-63
2021/10/07 18:41:25;;;;;;;13.90;5.57;;;;;;;;;;10277079;28;20498;-63
2021/10/07 18:46:24;;;;;;;14.15;5.30;;;;;;;;;;10291831;28;20069;-63
2021/10/07 18:51:25;;;;;;;17.67;5.80;;;;;;;;;;10295495;28;20065;-63
2021/10/07 18:56:23;;;;;;;13.50;6.78;;;;;;;;;;10293364;28;20048;-63
2021/10/07 19:01:21;;;;;;;18.48;7.10;;;;;;;;;;10293418;28;20076;-63
2021/10/07 19:06:21;;;;;;;14.20;6.55;;;;;;;;;;10291357;28;20080;-64
2021/10/07 19:11:21;;;;;;;8.32;5.55;;;;;;;;;;10291409;28;20206;-64
2021/10/07 19:16:19;;;;;;;16.17;6.15;;;;;;;;;;10295181;28;20064;-64
2021/10/07 19:21:17;;;;;;;11.10;5.65;;;;;;;;;;10293260;28;20049;-64
2021/10/07 19:26:18;;;;;;;12.63;5.95;;;;;;;;;;10295088;28;20076;-64
2021/10/07 19:31:18;;;;;;;15.07;5.88;;;;;;;;;;10293406;28;20048;-65
2021/10/07 19:36:17;;;;;;;12.45;5.95;;;;;;;;;;10295183;28;20068;-64
2021/10/07 19:41:15;;;;;;;16.95;6.20;;;;;;;;;;10293427;28;20041;-64
2021/10/07 19:46:14;;;;;;;17.25;6.93;;;;;;;;;;10294214;28;20496;-64
2021/10/07 19:51:14;;;;;;;12.60;6.00;;;;;;;;;;10293758;28;20048;-65
2021/10/07 19:56:13;;;;;;;15.32;8.60;;;;;;;;;;10295889;28;20777;-65
2021/10/07 20:01:11;;;;;;;20.85;7.82;;;;;;;;;;10292207;28;20044;-64
2021/10/07 20:06:10;;;;;;;16.15;8.60;;;;;;;;;;10292774;28;20095;-65
2021/10/07 20:11:09;;;;;;;23.98;10.32;;;;;;;;;;10293542;28;20068;-65
2021/10/07 20:16:08;;;;;;;18.75;9.02;;;;;;;;;;10296937;28;20052;-65
2021/10/07 20:21:06;;;;;;;21.13;10.70;;;;;;;;;;10299787;28;20041;-65
2021/10/07 20:26:04;;;;;;;19.75;8.43;;;;;;;;;;10299250;28;20471;-65
2021/10/07 20:31:05;;;;;;;12.50;8.40;;;;;;;;;;10298870;28;20454;-65
2021/10/07 20:36:13;;;;;;;13.05;7.32;;;;;;;;;;10299764;28;20064;-65
2021/10/07 20:41:12;;;;;;;12.88;6.30;;;;;;;;;;10300346;28;20084;-64
2021/10/07 20:46:11;;;;;;;15.55;7.70;;;;;;;;;;10297543;28;20075;-65
2021/10/07 20:51:11;;;;;;;13.95;8.30;;;;;;;;;;10298836;28;20041;-63
2021/10/07 20:56:09;;;;;;;13.88;6.80;;;;;;;;;;10297634;28;20065;-64
2021/10/07 21:01:08;;;;;;;11.63;5.65;;;;;;;;;;10294327;28;20081;-64
2021/10/07 21:06:07;;;;;;;13.13;6.43;;;;;;;;;;10296785;28;20068;-64
2021/10/07 21:11:06;;;;;;;19.92;7.95;;;;;;;;;;10297895;28;20568;-63
2021/10/07 21:16:04;;;;;;;11.80;7.47;;;;;;;;;;10297939;28;20152;-65
2021/10/07 21:21:03;;;;;;;15.52;6.47;;;;;;;;;;10296962;28;20056;-63
2021/10/07 21:26:03;;;;;;;13.43;5.70;;;;;;;;;;10297461;28;20083;-64
2021/10/07 21:31:01;;;;;;;10.65;5.25;;;;;;;;;;10296353;28;20064;-65
2021/10/07 21:36:00;;;;;;;11.82;5.30;;;;;;;;;;10277445;28;20052;-65
2021/10/07 21:40:58;;;;;;;17.15;5.95;;;;;;;;;;10277383;28;20045;-64
2021/10/07 21:45:58;;;;;;;13.93;5.53;;;;;;;;;;10276476;28;20075;-66
2021/10/07 21:50:57;;;;;;;12.60;4.93;;;;;;;;;;10277996;28;20053;-66
2021/10/07 21:55:55;;;;;;;9.75;5.65;;;;;;;;;;10277664;28;20517;-67
2021/10/07 22:00:57;;;;;;;11.95;6.07;;;;;;;;;;10277074;28;20077;-64
2021/10/07 22:05:56;;;;;;;16.92;5.32;;;;;;;;;;10277702;28;20498;-65
2021/10/07 22:10:54;;;;;;;12.25;5.00;;;;;;;;;;10276506;28;20445;-65
2021/10/07 22:15:53;;;;;;;12.65;6.28;;;;;;;;;;10276492;28;20127;-65
2021/10/07 22:20:52;;;;;;;10.98;4.43;;;;;;;;;;10276358;28;20049;-66
2021/10/07 22:25:51;;;;;;;16.35;5.22;;;;;;;;;;10276481;28;20081;-66
2021/10/07 22:30:49;;;;;;;9.00;5.10;;;;;;;;;;10275839;28;20048;-66
2021/10/07 22:35:49;;;;;;;15.32;5.40;;;;;;;;;;10276376;28;20068;-66
2021/10/07 22:40:48;;;;;;;11.93;5.43;;;;;;;;;;10276541;28;20072;-66
2021/10/07 22:45:47;;;;;;;17.00;5.53;;;;;;;;;;10276484;28;20069;-64
2021/10/07 22:50:45;;;;;;;18.23;5.43;;;;;;;;;;10276494;28;20052;-66
2021/10/07 22:55:43;;;;;;;12.50;5.15;;;;;;;;;;10275669;28;20069;-66
2021/10/07 23:00:43;;;;;;;19.00;6.18;;;;;;;;;;10276105;28;20049;-65
2021/10/07 23:05:41;;;;;;;12.10;4.80;;;;;;;;;;10276129;28;20065;-66
2021/10/07 23:10:40;;;;;;;19.17;6.97;;;;;;;;;;10275715;28;20084;-66
2021/10/07 23:15:38;;;;;;;11.07;4.55;;;;;;;;;;10276340;28;20072;-66
2021/10/07 23:20:38;;;;;;;14.10;5.32;;;;;;;;;;10276094;28;20069;-66
2021/10/07 23:25:39;;;;;;;15.07;5.60;;;;;;;;;;10275726;28;20055;-66
2021/10/07 23:30:37;;;;;;;15.63;6.35;;;;;;;;;;10275122;28;20055;-67
2021/10/07 23:35:37;;;;;;;14.50;5.65;;;;;;;;;;10275377;28;20179;-67
2021/10/07 23:40:36;;;;;;;19.95;6.30;;;;;;;;;;10275402;28;20064;-65
2021/10/07 23:45:34;;;;;;;12.05;5.30;;;;;;;;;;10275019;28;20048;-66
2021/10/07 23:50:33;;;;;;;11.48;6.32;;;;;;;;;;10279964;28;20071;-66
2021/10/07 23:55:33;;;;;;;14.20;6.38;;;;;;;;;;10282667;28;20053;-66
